createdAt,value
2018-09-14T00:00:35.113Z,99.99
2018-09-14T00:01:35.081Z,99.99
2018-09-14T00:02:35.168Z,99.99
2018-09-14T00:03:34.974Z,99.99
2018-09-14T00:04:36.997Z,99.99
2018-09-14T00:05:34.882Z,99.99
2018-09-14T00:06:34.871Z,99.99
2018-09-14T00:07:34.805Z,99.99
2018-09-14T00:08:34.775Z,99.99
2018-09-14T00:09:34.734Z,99.99
2018-09-14T00:10:34.669Z,99.99
2018-09-14T00:11:34.647Z,99.99
2018-09-14T00:12:34.626Z,99.99
2018-09-14T00:13:34.562Z,99.99
2018-09-14T00:14:34.535Z,99.99
2018-09-14T00:15:34.488Z,99.99
2018-09-14T00:16:34.457Z,99.99
2018-09-14T00:17:34.413Z,99.99
2018-09-14T00:18:34.375Z,99.99
2018-09-14T00:19:34.333Z,99.99
2018-09-14T00:20:34.299Z,99.99
2018-09-14T00:21:34.240Z,99.99
2018-09-14T00:22:34.235Z,99.99
2018-09-14T00:23:34.153Z,99.99
2018-09-14T00:24:34.118Z,99.99
2018-09-14T00:25:34.104Z,99.99
2018-09-14T00:26:34.033Z,99.99
2018-09-14T00:27:34.021Z,99.99
2018-09-14T00:28:33.947Z,99.99
2018-09-14T00:29:33.904Z,99.99
2018-09-14T00:30:33.889Z,99.99
2018-09-14T00:31:33.840Z,99.99
2018-09-14T00:32:33.812Z,99.99
2018-09-14T00:33:33.738Z,99.99
2018-09-14T00:34:33.707Z,99.99
2018-09-14T00:35:33.664Z,99.99
2018-09-14T00:36:33.622Z,99.99
2018-09-14T00:37:33.595Z,99.99
2018-09-14T00:38:33.534Z,99.99
2018-09-14T00:39:33.510Z,99.99
2018-09-14T00:40:33.448Z,99.99
2018-09-14T00:41:33.413Z,99.99
2018-09-14T00:42:33.387Z,99.99
2018-09-14T00:43:33.328Z,99.99
2018-09-14T00:44:33.301Z,99.99
2018-09-14T00:45:33.240Z,99.99
2018-09-14T00:46:33.211Z,99.99
2018-09-14T00:47:33.185Z,99.99
2018-09-14T00:48:33.141Z,99.99
2018-09-14T00:49:33.075Z,99.99
2018-09-14T00:50:33.030Z,99.99
2018-09-14T00:51:32.999Z,99.99
2018-09-14T00:52:32.984Z,99.99
2018-09-14T00:53:32.926Z,99.99
2018-09-14T00:54:32.860Z,99.99
2018-09-14T00:55:32.822Z,99.99
2018-09-14T00:56:32.771Z,99.99
2018-09-14T00:57:32.793Z,99.99
2018-09-14T00:58:32.712Z,99.99
2018-09-14T00:59:32.657Z,99.99
2018-09-14T01:00:32.604Z,99.99
2018-09-14T01:01:32.576Z,99.99
2018-09-14T01:02:32.529Z,99.99
2018-09-14T01:03:32.523Z,99.99
2018-09-14T01:04:32.452Z,99.99
2018-09-14T01:05:32.424Z,99.99
2018-09-14T01:06:32.412Z,99.99
2018-09-14T01:07:32.331Z,99.99
2018-09-14T01:08:32.360Z,99.99
2018-09-14T01:09:32.241Z,99.99
2018-09-14T01:10:32.196Z,99.99
2018-09-14T01:11:32.164Z,99.99
2018-09-14T01:12:32.126Z,99.99
2018-09-14T01:13:32.111Z,99.99
2018-09-14T01:14:32.063Z,99.99
2018-09-14T01:15:32.009Z,99.99
2018-09-14T01:16:31.988Z,99.99
2018-09-14T01:17:31.925Z,99.99
2018-09-14T01:18:31.910Z,99.99
2018-09-14T01:19:31.830Z,99.99
2018-09-14T01:20:31.788Z,99.99
2018-09-14T01:21:31.739Z,99.99
2018-09-14T01:22:42.081Z,99.99
2018-09-14T01:23:31.685Z,99.99
2018-09-14T01:24:31.889Z,99.99
2018-09-14T01:25:31.576Z,99.99
2018-09-14T01:26:31.538Z,99.99
2018-09-14T01:27:31.517Z,99.99
2018-09-14T01:28:31.471Z,99.99
2018-09-14T01:29:31.425Z,99.99
2018-09-14T01:30:31.370Z,99.99
2018-09-14T01:31:31.318Z,99.99
2018-09-14T01:32:31.289Z,99.99
2018-09-14T01:33:31.264Z,99.99
2018-09-14T01:34:31.231Z,99.99
2018-09-14T01:35:31.177Z,99.99
2018-09-14T01:36:31.113Z,99.99
2018-09-14T01:37:31.069Z,99.99
2018-09-14T01:38:31.036Z,99.99
2018-09-14T01:39:31.035Z,99.99
2018-09-14T01:40:30.938Z,99.99
2018-09-14T01:41:30.916Z,99.99
2018-09-14T01:42:30.891Z,99.99
2018-09-14T01:43:30.845Z,99.99
2018-09-14T01:44:30.795Z,99.99
2018-09-14T01:45:30.771Z,99.99
2018-09-14T01:46:30.716Z,99.99
2018-09-14T01:47:30.700Z,99.99
2018-09-14T01:48:30.627Z,99.99
2018-09-14T01:49:30.570Z,99.99
2018-09-14T01:50:30.583Z,99.99
2018-09-14T01:51:30.489Z,99.99
2018-09-14T01:52:30.452Z,99.99
2018-09-14T01:53:30.415Z,99.99
2018-09-14T01:54:30.368Z,99.99
2018-09-14T01:55:30.363Z,99.99
2018-09-14T01:56:30.285Z,99.99
2018-09-14T01:57:30.228Z,99.99
2018-09-14T01:58:30.211Z,99.99
2018-09-14T01:59:30.181Z,99.99
2018-09-14T02:00:30.128Z,99.99
2018-09-14T02:01:30.107Z,99.99
2018-09-14T02:02:30.028Z,99.99
2018-09-14T02:03:30.058Z,99.99
2018-09-14T02:04:29.969Z,99.99
2018-09-14T02:05:29.912Z,99.99
2018-09-14T02:06:29.910Z,99.99
2018-09-14T02:07:29.837Z,99.99
2018-09-14T02:08:29.821Z,99.99
2018-09-14T02:09:29.744Z,99.99
2018-09-14T02:10:29.703Z,99.99
2018-09-14T02:11:29.700Z,99.99
2018-09-14T02:12:29.634Z,99.99
2018-09-14T02:13:29.575Z,99.99
2018-09-14T02:14:29.537Z,99.99
2018-09-14T02:15:29.483Z,99.99
2018-09-14T02:16:29.471Z,99.99
2018-09-14T02:17:29.413Z,99.99
2018-09-14T02:18:29.369Z,99.99
2018-09-14T02:19:29.349Z,99.99
2018-09-14T02:20:29.295Z,99.99
2018-09-14T02:21:29.236Z,99.99
2018-09-14T02:22:29.228Z,99.99
2018-09-14T02:23:29.178Z,99.99
2018-09-14T02:24:29.114Z,99.99
2018-09-14T02:25:29.087Z,99.99
2018-09-14T02:26:29.049Z,99.99
2018-09-14T02:27:29.034Z,99.99
2018-09-14T02:28:28.950Z,99.99
2018-09-14T02:29:28.923Z,99.99
2018-09-14T02:30:28.870Z,99.99
2018-09-14T02:31:28.843Z,99.99
2018-09-14T02:32:28.819Z,99.99
2018-09-14T02:33:28.751Z,99.99
2018-09-14T02:34:28.698Z,99.99
2018-09-14T02:35:28.655Z,99.99
2018-09-14T02:36:28.611Z,99.99
2018-09-14T02:37:28.588Z,99.99
2018-09-14T02:38:28.569Z,99.99
2018-09-14T02:39:28.527Z,99.99
2018-09-14T02:40:28.452Z,99.99
2018-09-14T02:41:28.407Z,99.99
2018-09-14T02:42:28.372Z,99.99
2018-09-14T02:43:28.352Z,99.99
2018-09-14T02:44:28.278Z,99.99
2018-09-14T02:45:28.247Z,99.99
2018-09-14T02:46:28.238Z,99.99
2018-09-14T02:47:28.200Z,99.99
2018-09-14T02:48:28.138Z,99.99
2018-09-14T02:49:28.102Z,99.99
2018-09-14T02:50:28.029Z,99.99
2018-09-14T02:51:27.990Z,99.99
2018-09-14T02:52:27.952Z,99.99
2018-09-14T02:53:27.926Z,99.99
2018-09-14T02:54:27.866Z,99.99
2018-09-14T02:55:27.828Z,99.99
2018-09-14T02:56:27.769Z,99.99
2018-09-14T02:57:27.741Z,99.99
2018-09-14T02:58:27.725Z,99.99
2018-09-14T02:59:27.677Z,99.99
2018-09-14T03:00:27.620Z,99.99
2018-09-14T03:01:27.580Z,99.99
2018-09-14T03:02:27.557Z,99.99
2018-09-14T03:03:27.491Z,99.99
2018-09-14T03:04:27.478Z,99.99
2018-09-14T03:05:27.387Z,99.99
2018-09-14T03:06:27.352Z,99.99
2018-09-14T03:07:27.314Z,99.99
2018-09-14T03:08:27.313Z,99.99
2018-09-14T03:09:27.275Z,99.99
2018-09-14T03:10:27.201Z,99.99
2018-09-14T03:11:27.144Z,99.99
2018-09-14T03:12:27.139Z,99.99
2018-09-14T03:13:27.068Z,99.99
2018-09-14T03:14:27.023Z,99.99
2018-09-14T03:15:27.011Z,99.99
2018-09-14T03:16:26.941Z,99.99
2018-09-14T03:17:26.915Z,99.99
2018-09-14T03:18:26.865Z,99.99
2018-09-14T03:19:26.811Z,99.99
2018-09-14T03:20:26.791Z,99.99
2018-09-14T03:21:26.752Z,99.99
2018-09-14T03:22:26.699Z,99.99
2018-09-14T03:23:26.648Z,99.99
2018-09-14T03:24:26.608Z,99.99
2018-09-14T03:25:26.590Z,99.99
2018-09-14T03:26:26.514Z,99.99
2018-09-14T03:27:26.482Z,99.99
2018-09-14T03:28:26.437Z,99.99
2018-09-14T03:29:26.398Z,99.99
2018-09-14T03:30:26.379Z,99.99
2018-09-14T03:31:26.312Z,99.99
2018-09-14T03:32:26.276Z,99.99
2018-09-14T03:33:26.222Z,99.99
2018-09-14T03:34:26.194Z,99.99
2018-09-14T03:35:26.144Z,99.99
2018-09-14T03:36:26.131Z,99.99
2018-09-14T03:37:26.054Z,99.99
2018-09-14T03:38:26.055Z,99.99
2018-09-14T03:39:26.016Z,99.99
2018-09-14T03:40:25.936Z,99.99
2018-09-14T03:41:25.943Z,99.99
2018-09-14T03:42:25.864Z,99.99
2018-09-14T03:43:25.812Z,99.99
2018-09-14T03:44:25.768Z,99.99
2018-09-14T03:45:25.725Z,99.99
2018-09-14T03:46:25.716Z,99.99
2018-09-14T03:47:25.636Z,99.99
2018-09-14T03:48:25.597Z,99.99
2018-09-14T03:49:25.551Z,99.99
2018-09-14T03:50:25.511Z,99.99
2018-09-14T03:51:25.504Z,99.99
2018-09-14T03:52:25.412Z,99.99
2018-09-14T03:53:25.396Z,99.99
2018-09-14T03:54:25.396Z,99.99
2018-09-14T03:55:25.299Z,99.99
2018-09-14T03:56:25.280Z,99.99
2018-09-14T03:57:25.315Z,99.99
2018-09-14T03:58:25.188Z,99.99
2018-09-14T03:59:25.133Z,99.99
2018-09-14T04:00:25.088Z,99.99
2018-09-14T04:01:25.053Z,99.99
2018-09-14T04:02:25.059Z,99.99
2018-09-14T04:03:24.966Z,99.99
2018-09-14T04:04:24.925Z,99.99
2018-09-14T04:05:24.894Z,99.99
2018-09-14T04:06:24.839Z,99.99
2018-09-14T04:07:24.797Z,99.99
2018-09-14T04:08:24.808Z,99.99
2018-09-14T04:09:24.710Z,99.99
2018-09-14T04:10:24.673Z,99.99
2018-09-14T04:11:24.647Z,99.99
2018-09-14T04:12:24.579Z,99.99
2018-09-14T04:13:24.571Z,99.99
2018-09-14T04:14:24.496Z,99.99
2018-09-14T04:15:24.457Z,99.99
2018-09-14T04:16:24.427Z,99.99
2018-09-14T04:17:24.370Z,99.99
2018-09-14T04:18:24.393Z,99.99
2018-09-14T04:19:24.281Z,99.99
2018-09-14T04:20:24.258Z,99.99
2018-09-14T04:21:24.245Z,99.99
2018-09-14T04:22:24.186Z,99.99
2018-09-14T04:23:24.222Z,99.99
2018-09-14T04:24:24.109Z,99.99
2018-09-14T04:25:24.034Z,99.99
2018-09-14T04:26:23.993Z,99.99
2018-09-14T04:27:23.977Z,99.99
2018-09-14T04:28:23.943Z,99.99
2018-09-14T04:29:23.861Z,99.99
2018-09-14T04:30:23.812Z,99.99
2018-09-14T04:31:23.780Z,99.99
2018-09-14T04:32:23.750Z,99.99
2018-09-14T04:33:23.733Z,99.99
2018-09-14T04:34:23.675Z,99.99
2018-09-14T04:35:23.621Z,99.99
2018-09-14T04:36:23.578Z,99.99
2018-09-14T04:37:23.545Z,99.99
2018-09-14T04:38:23.553Z,99.99
2018-09-14T04:39:23.444Z,99.99
2018-09-14T04:40:23.410Z,99.99
2018-09-14T04:41:23.408Z,99.99
2018-09-14T04:42:23.354Z,99.99
2018-09-14T04:43:23.299Z,99.99
2018-09-14T04:44:23.256Z,99.99
2018-09-14T04:45:23.198Z,99.99
2018-09-14T04:46:23.151Z,99.99
2018-09-14T04:47:23.118Z,99.99
2018-09-14T04:48:23.167Z,99.99
2018-09-14T04:49:23.015Z,99.99
2018-09-14T04:50:22.988Z,99.99
2018-09-14T04:51:22.949Z,99.99
2018-09-14T04:52:22.888Z,99.99
2018-09-14T04:53:22.906Z,99.99
2018-09-14T04:54:22.818Z,99.99
2018-09-14T04:55:22.760Z,99.99
2018-09-14T04:56:22.726Z,99.99
2018-09-14T04:57:22.758Z,99.99
2018-09-14T04:58:22.680Z,99.99
2018-09-14T04:59:22.629Z,99.99
2018-09-14T05:00:22.570Z,99.99
2018-09-14T05:01:22.517Z,99.99
2018-09-14T05:02:22.498Z,99.99
2018-09-14T05:03:22.456Z,99.99
2018-09-14T05:04:22.424Z,99.99
2018-09-14T05:05:22.363Z,99.99
2018-09-14T05:06:22.303Z,99.99
2018-09-14T05:07:22.289Z,99.99
2018-09-14T05:08:22.219Z,99.99
2018-09-14T05:09:22.200Z,99.99
2018-09-14T05:10:22.139Z,99.99
2018-09-14T05:11:22.106Z,99.99
2018-09-14T05:12:22.067Z,99.99
2018-09-14T05:13:22.016Z,99.99
2018-09-14T05:14:21.990Z,99.99
2018-09-14T05:15:21.939Z,99.99
2018-09-14T05:16:21.884Z,99.99
2018-09-14T05:17:21.855Z,99.99
2018-09-14T05:18:21.822Z,99.99
2018-09-14T05:19:21.793Z,99.99
2018-09-14T05:20:21.743Z,99.99
2018-09-14T05:21:21.693Z,99.99
2018-09-14T05:22:21.665Z,99.99
2018-09-14T05:23:21.605Z,99.99
2018-09-14T05:24:21.588Z,99.99
2018-09-14T05:25:21.550Z,99.99
2018-09-14T05:26:21.485Z,99.99
2018-09-14T05:27:21.436Z,99.99
2018-09-14T05:28:21.381Z,99.99
2018-09-14T05:29:21.353Z,99.99
2018-09-14T05:30:21.343Z,99.99
2018-09-14T05:31:21.260Z,99.99
2018-09-14T05:32:21.234Z,99.99
2018-09-14T05:33:21.162Z,99.99
2018-09-14T05:34:21.128Z,99.99
2018-09-14T05:35:21.123Z,99.99
2018-09-14T05:36:21.038Z,99.99
2018-09-14T05:37:21.018Z,99.99
2018-09-14T05:38:21.069Z,99.99
2018-09-14T05:39:20.943Z,99.99
2018-09-14T05:40:20.887Z,99.99
2018-09-14T05:41:20.858Z,99.99
2018-09-14T05:42:20.790Z,99.99
2018-09-14T05:43:20.764Z,99.99
2018-09-14T05:44:20.714Z,99.99
2018-09-14T05:45:20.681Z,99.99
2018-09-14T05:46:20.665Z,99.99
2018-09-14T05:47:20.595Z,99.99
2018-09-14T05:48:20.538Z,99.99
2018-09-14T05:49:20.515Z,99.99
2018-09-14T05:50:20.475Z,99.99
2018-09-14T05:51:20.463Z,99.99
2018-09-14T05:52:20.402Z,99.99
2018-09-14T05:53:20.355Z,99.99
2018-09-14T05:54:20.331Z,99.99
2018-09-14T05:55:20.255Z,99.99
2018-09-14T05:56:20.207Z,99.99
2018-09-14T05:57:20.229Z,99.99
2018-09-14T05:58:20.156Z,99.99
2018-09-14T05:59:20.081Z,99.99
2018-09-14T06:00:20.075Z,99.99
2018-09-14T06:01:20.019Z,99.99
2018-09-14T06:02:20.016Z,99.99
2018-09-14T06:03:19.936Z,99.99
2018-09-14T06:04:19.896Z,99.99
2018-09-14T06:05:19.835Z,99.99
2018-09-14T06:06:19.833Z,99.99
2018-09-14T06:07:19.815Z,99.99
2018-09-14T06:08:19.716Z,99.99
2018-09-14T06:09:19.691Z,99.99
2018-09-14T06:10:19.670Z,99.99
2018-09-14T06:11:19.614Z,99.99
2018-09-14T06:12:19.565Z,99.99
2018-09-14T06:13:19.566Z,99.99
2018-09-14T06:14:19.522Z,99.99
2018-09-14T06:15:19.433Z,99.99
2018-09-14T06:16:19.413Z,99.99
2018-09-14T06:17:19.358Z,99.99
2018-09-14T06:18:19.353Z,99.99
2018-09-14T06:19:19.272Z,99.99
2018-09-14T06:20:19.259Z,99.99
2018-09-14T06:21:19.222Z,99.99
2018-09-14T06:22:19.177Z,99.99
2018-09-14T06:23:19.146Z,99.99
2018-09-14T06:24:19.089Z,99.99
2018-09-14T06:25:19.117Z,99.99
2018-09-14T06:26:18.987Z,99.99
2018-09-14T06:27:18.954Z,99.99
2018-09-14T06:28:18.949Z,99.99
2018-09-14T06:29:18.916Z,99.99
2018-09-14T06:30:18.912Z,99.99
2018-09-14T06:31:18.804Z,99.99
2018-09-14T06:32:18.760Z,99.99
2018-09-14T06:33:18.732Z,99.99
2018-09-14T06:34:18.734Z,99.99
2018-09-14T06:35:18.643Z,99.99
2018-09-14T06:36:18.613Z,99.99
2018-09-14T06:37:18.566Z,99.99
2018-09-14T06:38:18.604Z,99.99
2018-09-14T06:39:18.515Z,99.99
2018-09-14T06:40:18.482Z,99.99
2018-09-14T06:41:18.433Z,99.99
2018-09-14T06:42:18.416Z,99.99
2018-09-14T06:43:18.354Z,99.99
2018-09-14T06:44:18.335Z,99.99
2018-09-14T06:45:18.353Z,99.99
2018-09-14T06:46:18.228Z,99.99
2018-09-14T06:47:18.205Z,99.99
2018-09-14T06:48:18.160Z,99.99
2018-09-14T06:49:18.165Z,99.99
2018-09-14T06:50:18.091Z,99.99
2018-09-14T06:51:18.057Z,99.99
2018-09-14T06:52:18.009Z,99.99
2018-09-14T06:53:18.039Z,99.99
2018-09-14T06:54:17.948Z,99.99
2018-09-14T06:55:17.945Z,99.99
2018-09-14T06:56:17.876Z,99.99
2018-09-14T06:57:17.824Z,99.99
2018-09-14T06:58:17.796Z,99.99
2018-09-14T06:59:17.743Z,99.78
2018-09-14T07:00:17.785Z,99.99
2018-09-14T07:01:17.726Z,99.99
2018-09-14T07:02:17.645Z,99.99
2018-09-14T07:03:17.616Z,99.99
2018-09-14T07:04:17.591Z,99.99
2018-09-14T07:05:17.623Z,99.99
2018-09-14T07:06:17.521Z,99.78
2018-09-14T07:07:17.478Z,99.54
2018-09-14T07:08:17.437Z,99.99
2018-09-14T07:09:17.401Z,99.99
2018-09-14T07:10:17.373Z,99.99
2018-09-14T07:11:17.317Z,99.99
2018-09-14T07:12:29.894Z,99.99
2018-09-14T07:13:17.358Z,99.99
2018-09-14T07:14:17.234Z,99.99
2018-09-14T07:15:17.207Z,99.99
2018-09-14T07:16:17.185Z,99.99
2018-09-14T07:17:17.200Z,99.99
2018-09-14T07:18:17.076Z,99.99
2018-09-14T07:19:17.073Z,99.99
2018-09-14T07:20:17.005Z,99.99
2018-09-14T07:21:16.978Z,99.99
2018-09-14T07:22:17.036Z,99.99
2018-09-14T07:23:16.900Z,99.99
2018-09-14T07:24:16.941Z,99.99
2018-09-14T07:25:16.916Z,99.99
2018-09-14T07:26:16.853Z,99.99
2018-09-14T07:27:16.823Z,99.99
2018-09-14T07:28:16.712Z,99.99
2018-09-14T07:29:16.824Z,99.99
2018-09-14T07:30:16.679Z,99.99
2018-09-14T07:31:16.643Z,99.99
2018-09-14T07:32:16.593Z,99.99
2018-09-14T07:33:16.553Z,99.99
2018-09-14T07:34:16.535Z,99.99
2018-09-14T07:35:16.502Z,99.78
2018-09-14T07:36:16.483Z,99.40
2018-09-14T07:37:16.437Z,99.01
2018-09-14T07:38:16.408Z,99.49
2018-09-14T07:39:16.398Z,98.58
2018-09-14T07:40:16.296Z,99.01
2018-09-14T07:41:16.303Z,99.30
2018-09-14T07:42:16.230Z,97.76
2018-09-14T07:43:16.211Z,99.30
2018-09-14T07:44:16.174Z,99.99
2018-09-14T07:45:16.153Z,98.24
2018-09-14T07:46:16.112Z,97.96
2018-09-14T07:47:16.092Z,98.77
2018-09-14T07:48:16.115Z,96.90
2018-09-14T07:49:16.014Z,97.96
2018-09-14T07:50:15.991Z,98.34
2018-09-14T07:51:15.966Z,98.19
2018-09-14T07:52:15.895Z,95.79
2018-09-14T07:53:15.876Z,96.22
2018-09-14T07:54:15.832Z,93.33
2018-09-14T07:55:15.809Z,94.06
2018-09-14T07:56:15.777Z,90.93
2018-09-14T07:57:15.785Z,94.15
2018-09-14T07:58:15.737Z,95.12
2018-09-14T07:59:15.662Z,96.80
2018-09-14T08:00:15.670Z,98.10
2018-09-14T08:01:15.690Z,98.10
2018-09-14T08:02:15.625Z,98.53
2018-09-14T08:03:15.598Z,98.19
2018-09-14T08:04:15.885Z,98.53
2018-09-14T08:05:15.473Z,97.04
2018-09-14T08:06:15.458Z,98.44
2018-09-14T08:07:15.460Z,98.19
2018-09-14T08:08:15.374Z,96.94
2018-09-14T08:09:15.352Z,96.75
2018-09-14T08:10:15.338Z,95.45
2018-09-14T08:11:15.272Z,94.68
2018-09-14T08:12:15.307Z,94.45
2018-09-14T08:13:15.272Z,96.03
2018-09-14T08:14:15.169Z,92.76
2018-09-14T08:15:15.176Z,93.05
2018-09-14T08:16:15.151Z,94.45
2018-09-14T08:17:15.107Z,95.79
2018-09-14T08:18:15.083Z,94.15
2018-09-14T08:19:15.019Z,94.49
2018-09-14T08:20:15.034Z,97.04
2018-09-14T08:21:15.015Z,97.19
2018-09-14T08:22:14.925Z,95.60
2018-09-14T08:23:14.911Z,96.47
2018-09-14T08:24:14.832Z,97.33
2018-09-14T08:25:14.810Z,97.42
2018-09-14T08:26:14.791Z,98.96
2018-09-14T08:27:15.043Z,99.49
2018-09-14T08:28:14.745Z,97.19
2018-09-14T08:29:14.702Z,96.22
2018-09-14T08:30:14.694Z,96.27
2018-09-14T08:31:14.658Z,95.60
2018-09-14T08:32:14.679Z,96.37
2018-09-14T08:33:14.625Z,96.99
2018-09-14T08:34:14.572Z,97.38
2018-09-14T08:35:14.510Z,98.68
2018-09-14T08:36:14.463Z,95.36
2018-09-14T08:37:14.440Z,94.82
2018-09-14T08:38:14.785Z,92.08
2018-09-14T08:39:14.438Z,89.23
2018-09-14T08:40:14.997Z,88.04
2018-09-14T08:41:14.418Z,90.06
2018-09-14T08:42:14.284Z,90.01
2018-09-14T08:43:14.228Z,92.08
2018-09-14T08:44:14.218Z,93.00
2018-09-14T08:45:14.201Z,95.94
2018-09-14T08:46:14.131Z,94.68
2018-09-14T08:47:14.113Z,96.03
2018-09-14T08:48:14.090Z,97.09
2018-09-14T08:49:14.167Z,96.75
2018-09-14T08:50:14.008Z,94.40
2018-09-14T08:51:13.954Z,91.41
2018-09-14T08:52:13.937Z,94.10
2018-09-14T08:53:14.121Z,93.38
2018-09-14T08:54:13.890Z,91.56
2018-09-14T08:55:13.844Z,90.02
2018-09-14T08:56:13.804Z,90.69
2018-09-14T08:57:13.857Z,89.15
2018-09-14T08:58:13.805Z,90.79
2018-09-14T08:59:13.757Z,90.12
2018-09-14T09:00:13.716Z,89.44
2018-09-14T09:01:13.664Z,91.32
2018-09-14T09:02:13.604Z,91.99
2018-09-14T09:03:13.633Z,91.66
2018-09-14T09:04:13.580Z,91.03
2018-09-14T09:05:13.540Z,88.76
2018-09-14T09:06:13.464Z,88.28
2018-09-14T09:07:13.490Z,88.18
2018-09-14T09:08:13.536Z,88.38
2018-09-14T09:09:13.424Z,88.61
2018-09-14T09:10:25.544Z,86.25
2018-09-14T09:11:13.467Z,83.64
2018-09-14T09:12:13.421Z,83.26
2018-09-14T09:13:13.295Z,84.81
2018-09-14T09:14:13.205Z,85.72
2018-09-14T09:15:13.252Z,85.24
2018-09-14T09:16:13.197Z,86.21
2018-09-14T09:17:13.135Z,87.26
2018-09-14T09:18:13.093Z,86.82
2018-09-14T09:19:13.250Z,85.47
2018-09-14T09:20:13.035Z,83.74
2018-09-14T09:21:13.050Z,82.78
2018-09-14T09:22:12.951Z,83.84
2018-09-14T09:23:12.939Z,84.42
2018-09-14T09:24:12.893Z,83.84
2018-09-14T09:25:12.867Z,82.78
2018-09-14T09:26:12.915Z,82.87
2018-09-14T09:27:12.797Z,82.20
2018-09-14T09:28:12.765Z,82.20
2018-09-14T09:29:12.743Z,81.81
2018-09-14T09:30:12.707Z,84.42
2018-09-14T09:31:12.696Z,83.36
2018-09-14T09:32:24.088Z,81.91
2018-09-14T09:33:12.613Z,85.13
2018-09-14T09:34:12.583Z,85.66
2018-09-14T09:35:12.534Z,80.79
2018-09-14T09:36:12.504Z,79.68
2018-09-14T09:37:12.512Z,80.06
2018-09-14T09:38:12.452Z,81.12
2018-09-14T09:39:12.432Z,80.51
2018-09-14T09:40:12.391Z,82.59
2018-09-14T09:41:12.390Z,81.62
2018-09-14T09:42:12.357Z,83.26
2018-09-14T09:43:12.347Z,82.06
2018-09-14T09:44:12.285Z,83.37
2018-09-14T09:45:12.239Z,88.32
2018-09-14T09:46:12.213Z,87.21
2018-09-14T09:47:12.215Z,85.05
2018-09-14T09:48:12.143Z,86.59
2018-09-14T09:49:12.108Z,90.06
2018-09-14T09:50:12.088Z,85.14
2018-09-14T09:51:12.116Z,85.96
2018-09-14T09:52:12.029Z,83.45
2018-09-14T09:53:12.010Z,82.29
2018-09-14T09:54:11.964Z,80.85
2018-09-14T09:55:11.934Z,83.11
2018-09-14T09:56:11.909Z,79.41
2018-09-14T09:57:11.879Z,79.21
2018-09-14T09:58:11.867Z,80.37
2018-09-14T09:59:11.817Z,79.11
2018-09-14T10:00:11.774Z,82.05
2018-09-14T10:01:11.734Z,80.02
2018-09-14T10:02:11.708Z,79.50
2018-09-14T10:03:11.739Z,79.79
2018-09-14T10:04:11.757Z,79.74
2018-09-14T10:05:11.617Z,78.91
2018-09-14T10:06:11.601Z,78.52
2018-09-14T10:07:11.558Z,76.92
2018-09-14T10:08:11.548Z,75.49
2018-09-14T10:09:11.524Z,76.68
2018-09-14T10:10:11.468Z,75.59
2018-09-14T10:11:11.433Z,77.51
2018-09-14T10:12:11.421Z,78.81
2018-09-14T10:13:11.384Z,77.65
2018-09-14T10:14:11.425Z,79.10
2018-09-14T10:15:11.321Z,74.47
2018-09-14T10:16:11.276Z,76.88
2018-09-14T10:17:11.267Z,77.23
2018-09-14T10:18:11.270Z,75.78
2018-09-14T10:19:11.177Z,76.36
2018-09-14T10:20:11.179Z,76.78
2018-09-14T10:21:11.170Z,77.46
2018-09-14T10:22:11.097Z,76.67
2018-09-14T10:23:11.099Z,74.02
2018-09-14T10:24:11.059Z,75.70
2018-09-14T10:25:11.010Z,73.63
2018-09-14T10:26:10.975Z,73.35
2018-09-14T10:27:10.947Z,74.69
2018-09-14T10:28:10.927Z,73.99
2018-09-14T10:29:10.932Z,75.20
2018-09-14T10:30:10.872Z,76.17
2018-09-14T10:31:10.861Z,75.01
2018-09-14T10:32:10.795Z,76.36
2018-09-14T10:33:10.815Z,76.59
2018-09-14T10:34:10.778Z,76.34
2018-09-14T10:35:10.711Z,74.69
2018-09-14T10:36:10.718Z,73.28
2018-09-14T10:37:10.649Z,72.03
2018-09-14T10:38:10.627Z,72.84
2018-09-14T10:39:10.605Z,69.26
2018-09-14T10:40:10.609Z,69.62
2018-09-14T10:41:10.536Z,70.58
2018-09-14T10:42:10.536Z,68.94
2018-09-14T10:43:20.216Z,69.71
2018-09-14T10:44:10.442Z,69.94
2018-09-14T10:45:10.425Z,68.07
2018-09-14T10:46:10.459Z,68.17
2018-09-14T10:47:10.340Z,67.62
2018-09-14T10:48:10.328Z,67.55
2018-09-14T10:49:10.294Z,68.84
2018-09-14T10:50:10.244Z,66.88
2018-09-14T10:51:10.236Z,69.10
2018-09-14T10:52:10.255Z,68.62
2018-09-14T10:53:10.178Z,67.75
2018-09-14T10:54:10.232Z,68.33
2018-09-14T10:55:10.138Z,67.55
2018-09-14T10:56:10.082Z,69.29
2018-09-14T10:57:10.059Z,67.75
2018-09-14T10:58:10.056Z,67.55
2018-09-14T10:59:10.026Z,66.01
2018-09-14T11:00:09.976Z,67.17
2018-09-14T11:01:09.954Z,65.34
2018-09-14T11:02:09.914Z,65.14
2018-09-14T11:03:09.867Z,66.97
2018-09-14T11:04:09.868Z,66.63
2018-09-14T11:05:09.931Z,67.11
2018-09-14T11:06:10.027Z,65.59
2018-09-14T11:07:09.932Z,66.88
2018-09-14T11:08:09.749Z,64.95
2018-09-14T11:09:09.712Z,64.76
2018-09-14T11:10:09.703Z,64.14
2018-09-14T11:11:09.673Z,63.47
2018-09-14T11:12:09.604Z,64.14
2018-09-14T11:13:09.736Z,66.56
2018-09-14T11:14:10.114Z,66.66
2018-09-14T11:15:09.585Z,64.63
2018-09-14T11:16:09.516Z,64.95
2018-09-14T11:17:09.665Z,67.55
2018-09-14T11:18:09.436Z,65.53
2018-09-14T11:19:09.502Z,67.27
2018-09-14T11:20:09.372Z,66.11
2018-09-14T11:21:09.400Z,65.27
2018-09-14T11:22:09.307Z,64.82
2018-09-14T11:23:09.307Z,63.66
2018-09-14T11:24:09.271Z,62.18
2018-09-14T11:25:09.273Z,62.86
2018-09-14T11:26:09.207Z,65.17
2018-09-14T11:27:09.199Z,65.40
2018-09-14T11:28:09.146Z,65.01
2018-09-14T11:29:19.180Z,63.50
2018-09-14T11:30:09.086Z,64.66
2018-09-14T11:31:09.063Z,63.60
2018-09-14T11:32:09.076Z,63.56
2018-09-14T11:33:08.998Z,63.53
2018-09-14T11:34:08.953Z,66.43
2018-09-14T11:35:08.939Z,65.24
2018-09-14T11:36:08.949Z,66.46
2018-09-14T11:37:08.959Z,67.14
2018-09-14T11:38:08.908Z,66.66
2018-09-14T11:39:08.804Z,66.82
2018-09-14T11:40:08.773Z,67.88
2018-09-14T11:41:19.704Z,68.80
2018-09-14T11:42:08.710Z,68.32
2018-09-14T11:43:08.697Z,67.84
2018-09-14T11:44:08.641Z,69.57
2018-09-14T11:45:08.639Z,68.99
2018-09-14T11:46:08.610Z,69.54
2018-09-14T11:47:08.592Z,70.50
2018-09-14T11:48:08.528Z,69.64
2018-09-14T11:49:08.524Z,68.96
2018-09-14T11:50:08.457Z,69.06
2018-09-14T11:51:08.423Z,69.15
2018-09-14T11:52:08.442Z,70.31
2018-09-14T11:53:08.393Z,70.21
2018-09-14T11:54:08.395Z,71.66
2018-09-14T11:55:08.291Z,71.70
2018-09-14T11:56:08.257Z,70.28
2018-09-14T11:57:08.270Z,68.87
2018-09-14T11:58:08.276Z,68.77
2018-09-14T11:59:08.191Z,66.75
2018-09-14T12:00:08.137Z,66.08
2018-09-14T12:01:08.112Z,65.78
2018-09-14T12:02:08.058Z,65.69
2018-09-14T12:03:08.056Z,64.76
2018-09-14T12:04:08.023Z,65.82
2018-09-14T12:05:07.972Z,64.86
2018-09-14T12:06:07.938Z,64.76
2018-09-14T12:07:07.906Z,63.70
2018-09-14T12:08:07.902Z,66.14
2018-09-14T12:09:07.840Z,63.50
2018-09-14T12:10:07.807Z,63.02
2018-09-14T12:11:07.793Z,64.28
2018-09-14T12:12:07.767Z,64.86
2018-09-14T12:13:07.846Z,64.72
2018-09-14T12:14:07.687Z,63.28
2018-09-14T12:15:07.670Z,63.50
2018-09-14T12:16:17.797Z,63.40
2018-09-14T12:17:07.608Z,64.86
2018-09-14T12:18:07.636Z,64.95
2018-09-14T12:19:07.551Z,63.60
2018-09-14T12:20:07.494Z,63.89
2018-09-14T12:21:07.467Z,62.25
2018-09-14T12:22:07.472Z,61.89
2018-09-14T12:23:07.407Z,62.54
2018-09-14T12:24:07.407Z,61.86
2018-09-14T12:25:07.353Z,61.57
2018-09-14T12:26:07.313Z,61.83
2018-09-14T12:27:07.300Z,63.09
2018-09-14T12:28:07.267Z,63.09
2018-09-14T12:29:07.238Z,63.47
2018-09-14T12:30:07.225Z,63.09
2018-09-14T12:31:07.176Z,64.15
2018-09-14T12:32:07.134Z,64.15
2018-09-14T12:33:07.116Z,64.82
2018-09-14T12:34:07.089Z,63.73
2018-09-14T12:35:07.096Z,64.24
2018-09-14T12:36:07.023Z,64.89
2018-09-14T12:37:07.033Z,65.59
2018-09-14T12:38:06.964Z,64.92
2018-09-14T12:39:06.934Z,64.15
2018-09-14T12:40:06.927Z,66.04
2018-09-14T12:41:06.886Z,66.04
2018-09-14T12:42:06.855Z,65.75
2018-09-14T12:43:19.400Z,66.43
2018-09-14T12:44:08.592Z,66.11
2018-09-14T12:45:09.872Z,66.33
2018-09-14T12:46:07.075Z,66.24
2018-09-14T12:47:07.267Z,66.04
2018-09-14T12:48:06.771Z,65.59
2018-09-14T12:49:09.588Z,64.56
2018-09-14T12:50:06.635Z,64.95
2018-09-14T12:51:06.606Z,64.05
2018-09-14T12:52:06.526Z,61.93